Time;durP1;ratioP1;P1;durP2;ratioP2;P2;SDS_P1;SDS_P2;PMS_P1;PMS_P2;Temp;Humidity;BMP_temperature;BMP_pressure;BME280_temperature;BME280_humidity;BME280_pressure;Samples;Min_cycle;Max_cycle;Signal;HPM_P1;HPM_P2
2023/05/31 00:01:14;;;;;;;6.22;4.15;;;;;;;18.39;75.30;101229.25;4971194;28;20041;-88
2023/05/31 00:03:43;;;;;;;5.28;3.92;;;;;;;18.33;75.64;101229.69;4987455;28;20038;-88
2023/05/31 00:06:12;;;;;;;7.20;4.43;;;;;;;18.34;75.64;101231.34;4970712;28;20035;-90
2023/05/31 00:08:38;;;;;;;6.97;4.35;;;;;;;18.34;75.73;101228.72;4986684;28;20085;-89
2023/05/31 00:11:04;;;;;;;8.55;4.82;;;;;;;18.32;75.80;101228.84;4971015;28;20039;-89
2023/05/31 00:13:29;;;;;;;7.50;4.57;;;;;;;18.29;75.85;101230.88;4954927;28;20084;-89
2023/05/31 00:15:55;;;;;;;6.10;3.92;;;;;;;18.21;76.11;101246.28;4970878;28;20448;-88
2023/05/31 00:18:20;;;;;;;6.35;4.22;;;;;;;18.18;76.27;101243.84;4954795;28;20034;-88
2023/05/31 00:20:46;;;;;;;5.63;4.13;;;;;;;18.23;76.57;101234.75;4986695;28;20060;-89
2023/05/31 00:23:11;;;;;;;6.80;4.25;;;;;;;18.18;76.55;101217.66;4971233;28;20038;-89
2023/05/31 00:25:37;;;;;;;7.75;4.20;;;;;;;18.32;76.13;101233.25;4970968;28;20031;-88
2023/05/31 00:28:02;;;;;;;8.00;4.00;;;;;;;18.34;76.48;101247.06;4970931;28;20027;-88
2023/05/31 00:30:28;;;;;;;6.50;4.18;;;;;;;18.35;76.36;101243.50;4971137;28;20508;-88
2023/05/31 00:32:53;;;;;;;8.05;4.18;;;;;;;18.31;76.49;101242.06;4970856;28;20035;-89
2023/05/31 00:35:18;;;;;;;7.45;4.90;;;;;;;18.41;76.34;101234.38;4954350;28;20054;-89
2023/05/31 00:37:44;;;;;;;8.32;4.20;;;;;;;18.42;76.00;101233.44;4970780;28;20093;-88
2023/05/31 00:40:10;;;;;;;7.75;4.53;;;;;;;18.38;76.25;101240.66;4970703;28;20034;-90
2023/05/31 00:42:35;;;;;;;5.57;3.75;;;;;;;18.25;76.05;101232.00;4970576;28;20034;-87
2023/05/31 00:45:01;;;;;;;7.63;4.55;;;;;;;18.22;76.88;101232.25;4986865;28;20481;-89
2023/05/31 00:47:26;;;;;;;6.28;4.07;;;;;;;18.29;76.63;101242.16;4987034;28;20030;-88
2023/05/31 00:49:53;;;;;;;7.18;4.65;;;;;;;18.31;76.84;101242.91;4954299;28;20398;-88
2023/05/31 00:52:18;;;;;;;8.13;4.18;;;;;;;18.39;76.26;101239.72;4970448;28;20106;-89
2023/05/31 00:54:43;;;;;;;9.38;4.57;;;;;;;18.36;76.11;101247.78;4954573;28;20037;-88
2023/05/31 00:57:09;;;;;;;7.18;4.82;;;;;;;18.30;76.03;101243.00;4970561;28;20035;-88
2023/05/31 00:59:34;;;;;;;10.77;5.00;;;;;;;18.25;76.13;101250.34;4970340;28;20060;-88
2023/05/31 01:02:00;;;;;;;12.38;4.63;;;;;;;18.20;76.42;101250.69;4970495;28;20034;-89
2023/05/31 01:04:25;;;;;;;6.45;4.13;;;;;;;18.29;76.14;101259.66;4970315;28;20031;-88
2023/05/31 01:06:51;;;;;;;7.43;3.92;;;;;;;18.24;76.34;101261.75;4970556;28;20031;-89
2023/05/31 01:09:16;;;;;;;7.75;4.88;;;;;;;18.18;75.92;101267.44;4954366;28;20033;-87
2023/05/31 01:12:00;;;;;;;6.75;4.05;;;;;;;18.01;77.02;101260.78;4970394;28;20031;-88
2023/05/31 01:14:50;;;;;;;6.70;4.43;;;;;;;17.99;76.84;101265.25;4970414;28;20477;-88
2023/05/31 01:17:39;;;;;;;7.03;4.65;;;;;;;17.83;76.60;101262.88;4971403;28;20163;-88
2023/05/31 01:20:08;;;;;;;6.30;4.28;;;;;;;17.71;76.44;101264.56;4989620;28;20093;-88
2023/05/31 01:22:52;;;;;;;8.93;4.50;;;;;;;17.71;76.21;101245.44;4973852;28;20031;-87
2023/05/31 01:25:39;;;;;;;6.28;4.50;;;;;;;17.84;76.23;101275.03;4973991;28;20039;-88
2023/05/31 01:28:06;;;;;;;6.68;4.18;;;;;;;17.74;77.26;101268.75;4973914;28;20464;-88
2023/05/31 01:30:31;;;;;;;9.10;3.85;;;;;;;17.46;76.74;101230.53;4957961;28;20042;-88
2023/05/31 01:32:57;;;;;;;5.65;3.75;;;;;;;17.59;76.91;101254.06;4973596;28;20027;-90
2023/05/31 01:35:23;;;;;;;10.38;4.45;;;;;;;17.66;76.97;101265.78;4973578;28;20046;-88
2023/05/31 01:37:48;;;;;;;10.07;4.68;;;;;;;17.59;77.05;101275.00;4973757;28;20503;-88
2023/05/31 01:40:13;;;;;;;6.90;4.53;;;;;;;17.61;77.28;101273.97;4973475;28;20477;-88
2023/05/31 01:42:39;;;;;;;8.98;5.07;;;;;;;17.63;77.25;101266.00;4973919;28;20039;-88
2023/05/31 01:45:05;;;;;;;8.48;3.95;;;;;;;17.69;77.20;101281.28;4973584;28;20026;-89
2023/05/31 01:47:30;;;;;;;9.52;4.15;;;;;;;17.67;77.18;101278.75;4973502;28;20445;-90
2023/05/31 01:49:56;;;;;;;6.25;4.00;;;;;;;17.41;77.26;101258.78;4957393;28;20062;-88
2023/05/31 01:52:21;;;;;;;6.20;4.35;;;;;;;17.35;77.71;101262.63;4973229;28;20489;-87
2023/05/31 01:54:47;;;;;;;8.63;4.72;;;;;;;17.42;78.13;101274.38;4973211;28;20496;-88
2023/05/31 01:57:12;;;;;;;8.32;4.63;;;;;;;17.52;78.10;101278.97;4973248;28;20511;-89
2023/05/31 01:59:38;;;;;;;7.55;4.47;;;;;;;17.58;77.97;101284.63;4973219;28;20046;-89
2023/05/31 02:02:03;;;;;;;6.57;4.45;;;;;;;17.54;77.63;101277.09;4973183;28;20058;-88
2023/05/31 02:04:29;;;;;;;9.50;4.30;;;;;;;17.54;77.09;101274.47;4957216;28;20078;-88
2023/05/31 02:06:54;;;;;;;6.75;4.00;;;;;;;17.42;77.08;101242.97;4972988;28;20034;-87
2023/05/31 02:09:20;;;;;;;6.63;4.22;;;;;;;17.65;76.93;101277.19;4973142;28;20089;-88
2023/05/31 02:11:46;;;;;;;11.77;4.75;;;;;;;17.53;76.86;101270.19;4973291;28;20041;-87
2023/05/31 02:14:11;;;;;;;7.93;5.22;;;;;;;17.62;77.25;101282.66;4972894;28;20504;-88
2023/05/31 02:16:37;;;;;;;8.68;4.82;;;;;;;17.62;76.80;101286.09;4972588;28;20463;-87
2023/05/31 02:19:03;;;;;;;6.95;4.03;;;;;;;17.56;76.50;101270.81;4972950;28;20051;-88
2023/05/31 02:21:28;;;;;;;11.18;5.18;;;;;;;17.54;76.94;101279.72;4972889;28;20042;-88
2023/05/31 02:23:54;;;;;;;6.40;3.78;;;;;;;17.62;76.98;101287.88;4989157;28;20125;-88
2023/05/31 02:26:20;;;;;;;6.35;4.00;;;;;;;17.56;76.95;101280.44;4989409;28;20030;-87
2023/05/31 02:28:45;;;;;;;7.75;4.28;;;;;;;17.44;77.56;101284.72;4973143;28;20408;-88
2023/05/31 02:31:11;;;;;;;9.18;4.20;;;;;;;17.42;77.61;101287.44;4988095;28;20035;-88
2023/05/31 02:33:36;;;;;;;9.25;5.00;;;;;;;17.41;77.82;101285.78;4972825;28;20027;-87
2023/05/31 02:36:02;;;;;;;9.07;4.55;;;;;;;17.50;77.67;101297.38;4972827;28;20027;-87
2023/05/31 02:38:28;;;;;;;7.10;4.75;;;;;;;17.44;77.77;101298.63;4989008;28;20077;-88
2023/05/31 02:40:53;;;;;;;7.30;4.78;;;;;;;17.42;77.86;101304.91;4972571;28;20031;-87
2023/05/31 02:43:19;;;;;;;8.85;4.28;;;;;;;17.24;77.96;101283.44;4972314;28;20034;-88
2023/05/31 02:45:45;;;;;;;8.15;4.75;;;;;;;17.22;78.12;101287.94;4988507;28;20035;-87
2023/05/31 02:48:10;;;;;;;8.35;4.93;;;;;;;17.19;78.32;101295.97;4972595;28;20098;-87
2023/05/31 02:50:35;;;;;;;8.50;4.20;;;;;;;17.27;78.49;101298.91;4988708;28;20033;-88
2023/05/31 02:53:03;;;;;;;7.00;4.10;;;;;;;17.40;78.17;101307.66;4972433;28;20497;-88
2023/05/31 02:55:29;;;;;;;7.15;4.15;;;;;;;17.48;77.53;101307.94;4972382;28;20507;-89
2023/05/31 02:57:55;;;;;;;8.40;4.63;;;;;;;17.42;78.06;101315.38;4972397;28;20031;-87
2023/05/31 03:00:21;;;;;;;8.48;4.32;;;;;;;17.35;78.23;101309.72;4988492;28;20027;-88
2023/05/31 03:02:46;;;;;;;6.72;4.63;;;;;;;17.27;77.98;101301.53;4956222;28;20042;-86
2023/05/31 03:05:11;;;;;;;10.23;4.82;;;;;;;17.32;79.06;101304.69;4972231;28;20559;-89
2023/05/31 03:07:37;;;;;;;11.52;4.72;;;;;;;17.45;78.69;101326.47;4973295;28;20505;-88
2023/05/31 03:10:08;;;;;;;6.30;3.97;;;;;;;17.37;76.89;101317.44;4957317;28;20039;-87
2023/05/31 03:12:34;;;;;;;9.35;4.20;;;;;;;17.53;78.10;101319.91;4990188;28;20393;-88
2023/05/31 03:14:59;;;;;;;11.68;4.18;;;;;;;17.64;77.39;101314.78;4973742;28;20038;-88
2023/05/31 03:17:25;;;;;;;7.03;4.30;;;;;;;17.71;76.28;101326.53;4973870;28;20090;-87
2023/05/31 03:19:51;;;;;;;6.43;4.70;;;;;;;17.82;74.83;101334.50;4955681;28;20539;-86
2023/05/31 03:22:16;;;;;;;7.70;3.92;;;;;;;17.74;75.69;101335.00;4971586;28;20030;-87
2023/05/31 03:24:42;;;;;;;6.57;4.32;;;;;;;17.58;74.90;101300.31;4955797;28;20042;-88
2023/05/31 03:27:07;;;;;;;7.10;4.60;;;;;;;17.75;75.59;101325.38;4987924;28;20041;-87
2023/05/31 03:29:36;;;;;;;35.72;8.80;;;;;;;17.83;74.61;101336.16;4972502;28;20042;-87
2023/05/31 03:32:01;;;;;;;8.98;4.07;;;;;;;17.89;74.09;101351.44;4971647;28;20118;-88
2023/05/31 03:34:27;;;;;;;7.55;4.47;;;;;;;17.83;73.95;101351.88;4988119;28;20030;-87
2023/05/31 03:36:52;;;;;;;6.28;4.35;;;;;;;17.74;73.78;101347.25;4955448;28;20037;-87
2023/05/31 03:39:18;;;;;;;6.63;3.97;;;;;;;17.54;74.66;101345.13;4987546;28;20041;-85
2023/05/31 03:41:43;;;;;;;7.80;4.07;;;;;;;17.52;75.24;101347.00;4954413;28;20038;-86
2023/05/31 03:44:09;;;;;;;6.38;4.00;;;;;;;17.50;75.26;101347.06;4971359;28;20018;-87
2023/05/31 03:46:34;;;;;;;6.10;4.07;;;;;;;17.51;75.32;101347.94;4971424;28;20086;-86
2023/05/31 03:49:00;;;;;;;9.85;4.35;;;;;;;17.52;75.34;101347.00;4971697;28;20409;-87
2023/05/31 03:51:26;;;;;;;8.40;4.00;;;;;;;17.54;74.76;101352.97;4987519;28;20408;-86
2023/05/31 03:53:51;;;;;;;7.53;4.50;;;;;;;17.42;74.98;101362.47;4972797;28;20042;-86
2023/05/31 03:56:17;;;;;;;9.23;4.53;;;;;;;17.34;75.04;101344.66;4973098;28;20037;-86
2023/05/31 03:58:42;;;;;;;6.10;4.00;;;;;;;17.35;75.00;101348.09;4973419;28;20389;-87
2023/05/31 04:01:08;;;;;;;7.75;4.25;;;;;;;17.25;75.63;101347.88;4962008;28;20595;-86
2023/05/31 04:03:33;;;;;;;8.02;4.40;;;;;;;17.34;75.69;101359.50;4990440;28;20027;-85
2023/05/31 04:05:59;;;;;;;5.03;3.80;;;;;;;17.35;76.27;101348.09;4989543;28;20034;-87
2023/05/31 04:08:24;;;;;;;6.38;4.20;;;;;;;17.48;75.72;101354.19;4990282;28;20026;-85
2023/05/31 04:10:50;;;;;;;6.85;4.15;;;;;;;17.48;75.80;101360.25;4990002;28;20041;-89
2023/05/31 04:13:15;;;;;;;8.18;5.00;;;;;;;17.51;75.77;101366.25;4989734;28;20038;-82
2023/05/31 04:15:41;;;;;;;12.68;4.78;;;;;;;17.64;75.75;101362.72;4983127;28;20045;-81
2023/05/31 04:18:06;;;;;;;8.52;4.47;;;;;;;17.64;75.71;101369.72;4971766;28;20488;-82
2023/05/31 04:20:32;;;;;;;10.02;5.03;;;;;;;17.66;75.62;101378.31;4980316;28;20381;-84
2023/05/31 04:22:57;;;;;;;8.77;4.25;;;;;;;17.64;75.85;101367.09;4991289;28;20037;-87
2023/05/31 04:25:22;;;;;;;12.98;4.63;;;;;;;17.84;74.85;101376.25;4990503;28;20037;-83
2023/05/31 04:27:49;;;;;;;6.63;4.55;;;;;;;17.87;74.86;101373.44;4990459;28;20037;-84
2023/05/31 04:30:14;;;;;;;11.23;4.32;;;;;;;17.96;74.65;101373.66;4991510;28;20030;-86
2023/05/31 04:32:40;;;;;;;14.40;6.38;;;;;;;17.99;74.16;101373.47;4971007;28;20507;-91
2023/05/31 04:35:08;;;;;;;6.75;4.28;;;;;;;18.03;73.94;101385.38;4970576;28;20030;-86
2023/05/31 04:37:33;;;;;;;9.20;3.83;;;;;;;17.98;74.17;101363.06;4973901;28;20057;-88
2023/05/31 04:39:59;;;;;;;7.05;3.70;;;;;;;18.04;73.64;101362.66;4988232;28;20023;-88
2023/05/31 04:42:27;;;;;;;9.70;4.30;;;;;;;18.14;73.66;101371.56;4990360;28;20527;-89
2023/05/31 04:45:04;;;;;;;6.30;4.32;;;;;;;18.14;73.36;101375.97;4976542;28;20034;-90
2023/05/31 04:47:33;;;;;;;7.35;4.43;;;;;;;18.18;73.54;101393.97;4989383;28;20041;-88
2023/05/31 04:49:59;;;;;;;13.50;4.68;;;;;;;18.20;74.09;101396.50;5007858;28;20108;-90
2023/05/31 04:52:32;;;;;;;6.18;4.15;;;;;;;18.29;73.17;101398.50;4982621;28;20109;-83
2023/05/31 04:54:58;;;;;;;11.68;4.40;;;;;;;18.36;73.66;101404.97;4975382;28;20034;-92
2023/05/31 04:57:24;;;;;;;6.88;4.20;;;;;;;18.45;73.01;101401.69;4994515;28;20033;-90
2023/05/31 04:59:50;;;;;;;7.22;3.90;;;;;;;18.39;72.94;101377.72;4991380;28;20462;-89
2023/05/31 05:02:17;;;;;;;7.22;4.68;;;;;;;18.52;72.65;101392.47;4977724;28;20058;-89
2023/05/31 05:04:42;;;;;;;6.45;3.85;;;;;;;18.58;72.06;101386.81;4989508;28;20461;-88
2023/05/31 05:07:07;;;;;;;8.20;4.55;;;;;;;18.64;72.66;101403.88;4989577;28;20764;-88
2023/05/31 05:09:33;;;;;;;14.18;6.85;;;;;;;18.67;73.07;101402.84;4992267;28;20158;-90
2023/05/31 05:11:58;;;;;;;8.50;5.57;;;;;;;18.76;72.75;101407.44;4970198;28;20093;-87
2023/05/31 05:14:24;;;;;;;6.35;4.30;;;;;;;18.77;74.10;101396.00;4994805;28;20110;-88
2023/05/31 05:16:49;;;;;;;7.40;4.72;;;;;;;18.85;73.24;101410.25;4977445;28;20342;-92
2023/05/31 05:19:15;;;;;;;9.93;5.40;;;;;;;18.90;72.59;101408.16;4992493;28;20053;-86
2023/05/31 05:21:41;;;;;;;8.13;5.22;;;;;;;18.94;71.76;101406.13;4996886;28;20037;-87
2023/05/31 05:24:06;;;;;;;12.80;5.07;;;;;;;19.01;72.31;101394.25;4958851;28;20042;-85
2023/05/31 05:26:32;;;;;;;13.55;5.93;;;;;;;19.24;71.11;101410.13;5000184;28;20092;-93
2023/05/31 05:28:58;;;;;;;11.38;5.63;;;;;;;19.36;70.62;101403.97;4973132;28;20030;-89
2023/05/31 05:31:23;;;;;;;10.73;5.50;;;;;;;19.30;70.89;101388.69;4990785;28;20037;-88
2023/05/31 05:33:51;;;;;;;8.23;5.00;;;;;;;19.41;69.12;101402.69;5001641;28;20041;-89
2023/05/31 05:36:16;;;;;;;8.95;5.68;;;;;;;19.39;70.00;101411.63;4976775;28;20110;-91
2023/05/31 05:38:41;;;;;;;10.00;6.05;;;;;;;19.43;70.20;101415.69;4959865;28;20499;-86
2023/05/31 05:41:10;;;;;;;9.93;5.30;;;;;;;19.39;70.10;101403.75;4998853;28;20026;-89
2023/05/31 05:43:36;;;;;;;10.93;5.55;;;;;;;19.58;70.52;101414.59;4979394;28;20027;-92
2023/05/31 05:46:01;;;;;;;8.60;4.75;;;;;;;19.80;71.65;101415.63;4959559;28;20038;-87
2023/05/31 05:48:27;;;;;;;10.02;4.72;;;;;;;20.30;69.93;101406.50;4977082;28;20026;-91
2023/05/31 05:50:52;;;;;;;8.65;4.90;;;;;;;20.43;69.28;101407.25;4970061;28;20461;-87
2023/05/31 05:53:18;;;;;;;7.78;5.20;;;;;;;20.63;68.27;101392.53;4980886;28;20030;-92
2023/05/31 05:55:51;;;;;;;9.65;5.35;;;;;;;20.85;68.11;101418.81;4991589;28;20050;-89
2023/05/31 05:58:16;;;;;;;10.52;5.38;;;;;;;21.04;67.53;101417.31;4981547;28;20034;-92
2023/05/31 06:00:44;;;;;;;13.65;6.10;;;;;;;21.14;66.69;101410.38;4955123;28;20062;-87
2023/05/31 06:03:10;;;;;;;9.55;5.53;;;;;;;21.61;64.18;101421.47;4983634;28;20026;-85
2023/05/31 06:05:35;;;;;;;8.88;5.10;;;;;;;21.60;64.93;101425.06;4988822;28;20084;-88
2023/05/31 06:08:01;;;;;;;9.23;5.85;;;;;;;21.50;64.48;101419.72;4988879;28;20499;-87
2023/05/31 06:10:26;;;;;;;9.77;6.32;;;;;;;21.55;64.99;101427.25;4961131;28;20034;-86
2023/05/31 06:12:52;;;;;;;10.20;5.25;;;;;;;21.68;63.85;101422.63;4989972;28;20488;-87
2023/05/31 06:15:18;;;;;;;8.18;5.05;;;;;;;21.65;63.75;101429.00;4992035;28;20092;-94
2023/05/31 06:17:43;;;;;;;8.27;5.18;;;;;;;21.39;63.64;101419.75;4991019;28;20062;-89
2023/05/31 06:20:10;;;;;;;8.43;5.43;;;;;;;21.44;63.85;101436.03;4990153;28;20054;-87
2023/05/31 06:22:36;;;;;;;8.95;5.25;;;;;;;21.48;64.47;101438.28;4992126;28;20033;-92
2023/05/31 06:25:02;;;;;;;6.90;5.00;;;;;;;21.58;63.92;101437.53;4978983;28;20033;-88
2023/05/31 06:27:27;;;;;;;8.18;5.60;;;;;;;21.43;63.30;101403.63;4976573;28;20031;-88
2023/05/31 06:29:57;;;;;;;7.38;5.38;;;;;;;21.52;62.90;101433.56;4990524;28;20026;-85
2023/05/31 06:32:25;;;;;;;8.50;5.03;;;;;;;21.39;64.79;101444.28;4992773;28;20415;-89
2023/05/31 06:34:51;;;;;;;8.05;5.05;;;;;;;21.30;63.04;101434.50;4976353;28;20113;-87
2023/05/31 06:37:17;;;;;;;8.13;5.72;;;;;;;21.06;63.73;101412.78;4974770;28;20492;-90
2023/05/31 06:39:43;;;;;;;9.48;5.57;;;;;;;21.14;64.55;101434.91;4991477;28;20026;-86
2023/05/31 06:42:09;;;;;;;6.40;4.93;;;;;;;21.19;65.29;101437.97;4991014;28;20556;-88
2023/05/31 06:44:34;;;;;;;8.25;5.25;;;;;;;21.36;63.23;101434.03;4993842;28;20488;-91
2023/05/31 06:47:00;;;;;;;9.80;5.63;;;;;;;21.33;63.39;101438.69;4992168;28;20037;-90
2023/05/31 06:49:27;;;;;;;11.65;5.30;;;;;;;21.19;63.52;101427.47;4975844;28;20488;-89
2023/05/31 06:51:52;;;;;;;11.10;5.88;;;;;;;21.37;63.52;101430.41;4995025;28;20034;-89
2023/05/31 06:54:18;;;;;;;7.47;5.13;;;;;;;21.43;63.95;101437.84;4972905;28;20034;-93
2023/05/31 06:56:43;;;;;;;7.70;5.00;;;;;;;21.42;62.94;101422.13;4990232;28;20033;-84
2023/05/31 06:59:09;;;;;;;9.07;5.53;;;;;;;21.71;63.79;101431.09;4989125;28;20041;-91
2023/05/31 07:01:35;;;;;;;8.32;5.38;;;;;;;21.96;62.07;101437.81;4990217;28;20514;-92
2023/05/31 07:04:00;;;;;;;7.63;5.20;;;;;;;22.01;62.44;101414.53;4992377;28;20023;-91
2023/05/31 07:06:26;;;;;;;9.43;7.03;;;;;;;22.28;61.88;101443.00;4990071;28;20065;-85
2023/05/31 07:08:51;;;;;;;10.75;7.25;;;;;;;22.30;61.20;101419.97;4993035;28;20042;-90
2023/05/31 07:11:17;;;;;;;11.07;5.25;;;;;;;22.34;62.15;101425.84;4991743;28;20452;-89
2023/05/31 07:13:43;;;;;;;8.90;5.68;;;;;;;22.49;61.28;101445.59;4974443;28;20030;-93
2023/05/31 07:16:08;;;;;;;8.77;5.63;;;;;;;22.47;61.38;101436.97;4990411;28;20488;-88
2023/05/31 07:18:33;;;;;;;7.65;5.40;;;;;;;22.54;61.64;101440.78;4988792;28;20571;-88
2023/05/31 07:20:59;;;;;;;8.70;6.25;;;;;;;22.49;62.12;101434.22;4972531;28;20428;-89
2023/05/31 07:23:25;;;;;;;6.30;4.93;;;;;;;22.69;61.73;101440.41;4973535;28;20030;-93
2023/05/31 07:25:51;;;;;;;11.23;5.93;;;;;;;22.61;61.87;101433.16;4973112;28;20026;-88
2023/05/31 07:28:16;;;;;;;18.90;9.52;;;;;;;22.88;61.86;101440.47;4985219;28;20093;-88
2023/05/31 07:30:42;;;;;;;9.48;6.82;;;;;;;22.92;60.52;101418.16;4988979;28;20034;-89
2023/05/31 07:33:07;;;;;;;6.60;5.03;;;;;;;23.11;60.71;101436.66;4988973;28;20464;-89
2023/05/31 07:35:32;;;;;;;8.73;5.20;;;;;;;23.06;61.05;101417.75;4988687;28;20476;-86
2023/05/31 07:37:58;;;;;;;19.30;10.75;;;;;;;23.42;61.03;101418.06;5001813;28;20455;-86
2023/05/31 07:40:23;;;;;;;33.58;22.45;;;;;;;23.76;59.63;101431.69;4989963;28;20030;-90
2023/05/31 07:42:49;;;;;;;13.98;9.43;;;;;;;23.90;58.35;101427.78;4972725;28;20026;-86
2023/05/31 07:45:14;;;;;;;14.77;11.52;;;;;;;23.96;58.86;101411.34;4990775;28;20030;-84
2023/05/31 07:47:40;;;;;;;8.77;6.55;;;;;;;24.14;56.32;101419.38;4993269;28;20476;-86
2023/05/31 07:50:06;;;;;;;10.30;4.95;;;;;;;24.23;56.70;101419.34;4987995;28;20480;-89
2023/05/31 07:52:31;;;;;;;32.75;22.70;;;;;;;24.41;55.95;101426.56;4987690;28;20087;-87
2023/05/31 07:54:57;;;;;;;16.98;13.05;;;;;;;24.52;55.59;101413.97;4987215;28;20105;-91
2023/05/31 07:57:23;;;;;;;13.13;5.10;;;;;;;24.49;56.08;101413.44;4990006;28;20407;-88
2023/05/31 07:59:49;;;;;;;24.92;14.65;;;;;;;24.47;55.92;101412.72;4975825;28;20100;-87
2023/05/31 08:02:15;;;;;;;31.25;19.55;;;;;;;24.65;55.74;101410.97;4974799;28;20042;-89
2023/05/31 08:04:40;;;;;;;15.75;8.45;;;;;;;24.79;54.58;101399.91;4983527;28;20029;-89
2023/05/31 08:07:06;;;;;;;14.43;9.18;;;;;;;24.88;54.48;101399.00;4984697;28;20444;-86
2023/05/31 08:09:31;;;;;;;8.10;5.60;;;;;;;24.79;54.72;101401.72;4967004;28;20030;-88
2023/05/31 08:11:57;;;;;;;7.55;4.75;;;;;;;24.91;54.56;101407.63;4984503;28;20155;-85
2023/05/31 08:14:22;;;;;;;5.88;4.40;;;;;;;24.89;54.24;101403.31;4952367;28;20030;-86
2023/05/31 08:16:49;;;;;;;14.48;10.27;;;;;;;24.91;54.81;101418.22;4987382;28;20034;-85
2023/05/31 08:19:14;;;;;;;12.65;6.07;;;;;;;24.94;55.53;101417.91;4985878;28;20042;-85
2023/05/31 08:21:40;;;;;;;9.32;4.85;;;;;;;25.03;54.67;101411.75;4988151;28;20096;-88
2023/05/31 08:24:06;;;;;;;8.00;4.85;;;;;;;25.10;54.61;101415.47;4986805;28;20033;-87
2023/05/31 08:26:32;;;;;;;8.32;4.90;;;;;;;25.16;54.17;101413.03;4988051;28;20023;-91
2023/05/31 08:28:58;;;;;;;6.35;4.35;;;;;;;25.26;53.78;101407.66;4970524;28;20404;-86
2023/05/31 08:31:23;;;;;;;6.00;4.70;;;;;;;25.31;54.63;101409.88;4982565;28;20535;-87
2023/05/31 08:33:59;;;;;;;9.43;4.80;;;;;;;25.27;54.07;101385.53;4985518;28;20076;-81
2023/05/31 08:36:25;;;;;;;6.70;4.15;;;;;;;25.57;53.14;101417.88;4988353;28;20030;-87
2023/05/31 08:38:50;;;;;;;9.05;4.28;;;;;;;25.53;52.79;101403.25;4985641;28;20030;-88
2023/05/31 08:41:16;;;;;;;7.82;4.30;;;;;;;25.68;52.45;101407.03;4992433;28;20045;-87
2023/05/31 08:43:41;;;;;;;5.22;3.70;;;;;;;25.74;52.14;101399.31;4968680;28;20042;-88
2023/05/31 08:46:07;;;;;;;4.55;3.55;;;;;;;25.90;51.44;101406.56;4992054;28;20038;-88
2023/05/31 08:48:52;;;;;;;5.70;3.90;;;;;;;25.99;51.17;101395.03;4975572;28;20034;-90
2023/05/31 08:51:17;;;;;;;6.35;4.15;;;;;;;26.03;51.33;101396.34;4986903;28;20045;-91
2023/05/31 08:53:42;;;;;;;7.38;5.60;;;;;;;26.03;51.84;101393.69;4984705;28;20904;-89
2023/05/31 08:56:08;;;;;;;5.50;4.10;;;;;;;26.10;51.83;101396.56;4988270;28;20041;-87
2023/05/31 08:58:35;;;;;;;6.65;3.92;;;;;;;26.13;51.48;101390.09;4984427;28;20026;-87
2023/05/31 09:01:02;;;;;;;10.15;4.53;;;;;;;26.07;51.26;101369.53;4970094;28;20137;-88
2023/05/31 09:03:27;;;;;;;6.68;4.18;;;;;;;26.21;51.23;101374.25;4970935;28;20038;-86
2023/05/31 09:05:54;;;;;;;4.82;3.55;;;;;;;26.35;50.52;101400.19;4973865;28;20473;-86
2023/05/31 09:08:19;;;;;;;5.72;3.95;;;;;;;26.39;50.53;101380.31;4964579;28;20038;-88
2023/05/31 09:10:45;;;;;;;4.57;3.08;;;;;;;26.40;48.38;101389.94;4989794;28;20037;-88
2023/05/31 09:13:10;;;;;;;7.97;3.30;;;;;;;26.50;48.11;101385.34;4971576;28;20030;-88
2023/05/31 09:15:36;;;;;;;4.90;3.60;;;;;;;26.48;47.98;101376.72;4985832;28;20042;-85
2023/05/31 09:18:20;;;;;;;5.40;3.95;;;;;;;26.73;48.92;101390.03;4984868;28;20113;-85
2023/05/31 09:20:49;;;;;;;5.88;4.45;;;;;;;26.73;48.54;101382.09;4985739;28;20034;-86
2023/05/31 09:23:18;;;;;;;5.15;3.58;;;;;;;26.78;48.06;101385.09;4994172;28;20026;-86
2023/05/31 09:25:48;;;;;;;4.28;3.28;;;;;;;26.86;49.05;101382.47;4970683;28;20041;-84
2023/05/31 09:28:13;;;;;;;5.68;3.65;;;;;;;27.12;48.27;101380.53;4985745;28;20038;-89
2023/05/31 09:30:39;;;;;;;4.60;3.53;;;;;;;27.36;47.63;101373.56;4980016;28;20026;-87
2023/05/31 09:33:06;;;;;;;5.72;3.70;;;;;;;27.43;46.97;101363.91;4967661;28;20061;-85
2023/05/31 09:35:31;;;;;;;4.85;3.58;;;;;;;27.46;46.57;101357.47;4984225;28;20074;-89
2023/05/31 09:37:57;;;;;;;4.05;2.97;;;;;;;27.56;47.00;101364.25;4986617;28;20439;-86
2023/05/31 09:40:26;;;;;;;5.28;3.10;;;;;;;27.74;46.08;101363.28;4989105;28;20030;-90
2023/05/31 09:42:52;;;;;;;4.35;3.08;;;;;;;27.60;45.60;101341.66;4974724;28;20038;-88
2023/05/31 09:45:20;;;;;;;4.10;3.55;;;;;;;27.63;45.21;101337.81;4955806;28;20078;-87
2023/05/31 09:47:45;;;;;;;4.45;3.00;;;;;;;27.67;45.76;101355.97;4990319;28;20026;-86
2023/05/31 09:50:11;;;;;;;4.25;3.10;;;;;;;27.61;45.59;101345.13;4992827;28;20022;-91
2023/05/31 09:52:38;;;;;;;4.32;3.40;;;;;;;27.82;45.84;101341.97;4978396;28;20038;-92
2023/05/31 09:55:07;;;;;;;4.38;3.20;;;;;;;27.95;45.03;101339.63;4993642;28;20030;-89
2023/05/31 09:57:40;;;;;;;4.35;3.20;;;;;;;27.96;44.83;101338.63;4993193;28;20057;-90
2023/05/31 10:00:26;;;;;;;6.28;3.53;;;;;;;27.93;46.41;101333.66;5006209;28;20062;-86
2023/05/31 10:02:53;;;;;;;3.92;2.72;;;;;;;28.08;44.26;101325.78;4979148;28;20042;-84
2023/05/31 10:05:20;;;;;;;4.47;3.03;;;;;;;28.15;43.19;101313.44;4991077;28;20027;-86
2023/05/31 10:07:49;;;;;;;4.80;2.97;;;;;;;28.41;43.04;101323.81;4977198;28;20032;-90
2023/05/31 10:10:17;;;;;;;4.07;2.70;;;;;;;28.57;43.24;101321.06;4981538;28;20026;-89
2023/05/31 10:12:50;;;;;;;7.25;3.13;;;;;;;28.38;42.59;101318.84;4979243;28;20034;-85
2023/05/31 10:15:20;;;;;;;4.68;3.30;;;;;;;28.35;42.98;101319.19;4977180;28;20089;-85
2023/05/31 10:18:07;;;;;;;3.78;2.90;;;;;;;28.44;43.72;101313.66;4963637;28;20041;-85
2023/05/31 10:20:52;;;;;;;4.20;3.00;;;;;;;28.63;43.07;101312.38;4986951;28;20061;-91
2023/05/31 10:23:22;;;;;;;3.65;3.05;;;;;;;28.60;42.34;101306.56;4992301;28;20034;-85
2023/05/31 10:25:56;;;;;;;5.00;2.90;;;;;;;28.62;41.58;101313.38;4991623;28;20018;-86
2023/05/31 10:28:25;;;;;;;3.92;2.78;;;;;;;28.67;42.71;101313.69;4972229;28;20489;-83
2023/05/31 10:30:51;;;;;;;4.20;2.80;;;;;;;28.68;42.29;101302.03;4992352;28;20085;-84
2023/05/31 10:33:17;;;;;;;5.72;3.00;;;;;;;28.70;41.32;101296.50;4974790;28;20058;-85
2023/05/31 10:35:43;;;;;;;4.38;2.97;;;;;;;28.80;41.06;101307.75;4958615;28;20039;-82
2023/05/31 10:38:08;;;;;;;3.85;2.75;;;;;;;28.77;41.82;101289.47;4974677;28;20386;-82
2023/05/31 10:40:56;;;;;;;5.90;3.03;;;;;;;28.60;39.98;101301.25;4975116;28;20038;-89
2023/05/31 10:43:28;;;;;;;6.82;4.72;;;;;;;28.52;41.17;101299.47;4990740;28;20036;-88
2023/05/31 10:46:06;;;;;;;3.50;2.92;;;;;;;28.58;41.25;101293.44;5007195;28;20026;-85
2023/05/31 10:48:39;;;;;;;4.38;3.00;;;;;;;28.74;41.16;101290.66;4980847;28;20641;-87
2023/05/31 10:51:06;;;;;;;4.43;2.97;;;;;;;28.89;40.84;101282.75;4991849;28;20492;-89
2023/05/31 10:53:39;;;;;;;4.43;2.75;;;;;;;29.03;40.13;101281.97;4977297;28;20092;-89
2023/05/31 10:56:11;;;;;;;4.47;3.25;;;;;;;29.11;38.51;101270.44;4991306;28;20022;-88
2023/05/31 10:58:41;;;;;;;3.47;2.58;;;;;;;29.32;39.45;101283.88;4999324;28;20511;-88
2023/05/31 11:01:10;;;;;;;3.60;2.83;;;;;;;29.23;40.33;101282.31;4996909;28;20030;-87
2023/05/31 11:03:46;;;;;;;4.38;2.88;;;;;;;29.23;39.77;101281.47;4975463;28;20062;-90
2023/05/31 11:06:13;;;;;;;5.55;3.10;;;;;;;29.16;39.54;101286.69;4994827;28;20100;-89
2023/05/31 11:08:39;;;;;;;3.67;3.05;;;;;;;29.01;39.83;101283.19;5004894;28;20496;-91
2023/05/31 11:11:32;;;;;;;3.75;2.80;;;;;;;28.86;40.30;101289.25;4964274;28;20030;-88
2023/05/31 11:14:00;;;;;;;3.00;2.47;;;;;;;28.57;40.64;101265.16;4996128;28;20567;-88
2023/05/31 11:16:32;;;;;;;3.75;2.70;;;;;;;28.52;40.00;101259.56;5004948;28;20061;-92
2023/05/31 11:19:08;;;;;;;4.65;3.13;;;;;;;28.44;39.97;101272.91;4984832;28;20045;-92
2023/05/31 11:21:49;;;;;;;3.60;2.90;;;;;;;28.23;40.02;101277.00;4969594;28;20060;-88
2023/05/31 11:24:35;;;;;;;3.65;3.00;;;;;;;28.17;40.30;101267.03;5000912;28;20026;-88